Kakushu Maru — JG5688 — position and weather

sailwx.info

Track history (hours):
 
Tides and Currents Weather Stations Pressure Air Temp Water Temp Dewpoint Dewpoint Depression Visibility Wind Speed Wind Dir Waves Ship Positions

Kakushu Maru

Last reported at 2017-Jan-08 07:31 UTC. Time now 2017-Jan-18 08:07 UTC.
Position N 34°35' E 134°52'.
Warning: this ship's position is 10 days out of date.

Length 105 m; draft 6.3 m.

Type: Tanker. MMSI: 431101016.

Date/timePositionNaut miles runAvg speedWind from/ knotsBaromVisibWave heightAir tempDewpointWater temp
2017-Jan-08 07:31N 34°35' E 134°52'1414.4
2017-Jan-08 06:33N 34°38' E 135°08'1 0.9
2017-Jan-08 05:31N 34°39' E 135°08'0 0.0
2017-Jan-08 04:31N 34°39' E 135°08'0 0.0
2017-Jan-08 03:31N 34°39' E 135°08'0 0.0
2017-Jan-08 02:31N 34°39' E 135°08'0 0.0
2017-Jan-08 01:31N 34°39' E 135°08'0 0.0
2017-Jan-08 00:31N 34°39' E 135°08'0 0.0
2017-Jan-07 23:25N 34°39' E 135°08'0 0.0
2017-Jan-07 22:25N 34°38' E 135°08'1 1.0
2017-Jan-07 21:30N 34°38' E 135°08'0 0.0
2017-Jan-07 20:30N 34°38' E 135°08'0 0.0
2017-Jan-07 19:30N 34°38' E 135°08'0 0.0
2017-Jan-07 18:30N 34°38' E 135°08'0 0.1
2017-Jan-07 17:33N 34°38' E 135°08'9 9.1
2017-Jan-07 16:32N 34°36' E 134°57'  
2017-Jan-04 09:27N 34°35' E 134°52'1010.8
2017-Jan-04 08:33N 34°36' E 135°04'1413.7
2017-Jan-04 07:33N 34°33' E 135°20'2 0.3
2017-Jan-03 22:33N 34°33' E 135°23'4 3.6
2017-Jan-03 21:29N 34°33' E 135°18'0 0.0
2017-Jan-03 20:29N 34°33' E 135°18'0 0.0
2017-Jan-03 19:11N 34°33' E 135°18'0 0.1
2017-Jan-03 18:29N 34°33' E 135°18'0 0.0
2017-Jan-03 17:29N 34°33' E 135°18'0 0.0
2017-Jan-03 16:23N 34°33' E 135°18'0 0.1
2017-Jan-03 15:29N 34°33' E 135°18'0 0.0
2017-Jan-03 14:29N 34°33' E 135°18'0 0.1
2017-Jan-03 13:21N 34°33' E 135°18'810.6
2017-Jan-03 12:33N 34°35' E 135°08'  
Track history (hours):
 
Tides and Currents Weather Stations Pressure Air Temp Water Temp Dewpoint Dewpoint Depression Visibility Wind Speed Wind Dir Waves Ship Positions

Kakushu Maru

Last reported at 2017-Jan-08 07:31 UTC. Time now 2017-Jan-18 08:07 UTC.
Position N 34°35' E 134°52'.
Warning: this ship's position is 10 days out of date.

Length 105 m; draft 6.3 m.

Type: Tanker. MMSI: 431101016.

Date/timePositionNaut miles runAvg speedWind from/ knotsBaromVisibWave heightAir tempDewpointWater temp
2017-Jan-08 07:31N 34°35' E 134°52'1414.4
2017-Jan-08 06:33N 34°38' E 135°08'1 0.9
2017-Jan-08 05:31N 34°39' E 135°08'0 0.0
2017-Jan-08 04:31N 34°39' E 135°08'0 0.0
2017-Jan-08 03:31N 34°39' E 135°08'0 0.0
2017-Jan-08 02:31N 34°39' E 135°08'0 0.0
2017-Jan-08 01:31N 34°39' E 135°08'0 0.0
2017-Jan-08 00:31N 34°39' E 135°08'0 0.0
2017-Jan-07 23:25N 34°39' E 135°08'0 0.0
2017-Jan-07 22:25N 34°38' E 135°08'1 1.0
2017-Jan-07 21:30N 34°38' E 135°08'0 0.0
2017-Jan-07 20:30N 34°38' E 135°08'0 0.0
2017-Jan-07 19:30N 34°38' E 135°08'0 0.0
2017-Jan-07 18:30N 34°38' E 135°08'0 0.1
2017-Jan-07 17:33N 34°38' E 135°08'9 9.1
2017-Jan-07 16:32N 34°36' E 134°57'  
2017-Jan-04 09:27N 34°35' E 134°52'1010.8
2017-Jan-04 08:33N 34°36' E 135°04'1413.7
2017-Jan-04 07:33N 34°33' E 135°20'2 0.3
2017-Jan-03 22:33N 34°33' E 135°23'4 3.6
2017-Jan-03 21:29N 34°33' E 135°18'0 0.0
2017-Jan-03 20:29N 34°33' E 135°18'0 0.0
2017-Jan-03 19:11N 34°33' E 135°18'0 0.1
2017-Jan-03 18:29N 34°33' E 135°18'0 0.0
2017-Jan-03 17:29N 34°33' E 135°18'0 0.0
2017-Jan-03 16:23N 34°33' E 135°18'0 0.1
2017-Jan-03 15:29N 34°33' E 135°18'0 0.0
2017-Jan-03 14:29N 34°33' E 135°18'0 0.1
2017-Jan-03 13:21N 34°33' E 135°18'810.6
2017-Jan-03 12:33N 34°35' E 135°08'  

Dump ship's entire track history